createdAt,value
2018-09-09T00:00:05.843Z,67.15
2018-09-09T00:02:36.339Z,66.44
2018-09-09T00:05:05.369Z,67.77
2018-09-09T00:07:34.162Z,66.36
2018-09-09T00:10:02.992Z,66.60
2018-09-09T00:12:31.763Z,67.33
2018-09-09T00:15:00.588Z,67.30
2018-09-09T00:17:29.351Z,67.74
2018-09-09T00:19:58.152Z,67.43
2018-09-09T00:22:26.943Z,67.26
2018-09-09T00:24:55.703Z,68.15
2018-09-09T00:27:24.488Z,66.89
2018-09-09T00:29:53.284Z,67.80
2018-09-09T00:32:22.131Z,66.94
2018-09-09T00:34:50.883Z,66.95
2018-09-09T00:37:19.658Z,67.69
2018-09-09T00:39:48.508Z,67.92
2018-09-09T00:42:17.335Z,67.33
2018-09-09T00:44:46.175Z,67.35
2018-09-09T00:47:14.926Z,67.29
2018-09-09T00:49:49.054Z,66.55
2018-09-09T00:52:23.164Z,66.94
2018-09-09T00:54:51.971Z,67.03
2018-09-09T00:57:20.793Z,67.02
2018-09-09T00:59:49.583Z,67.26
2018-09-09T01:02:18.385Z,66.86
2018-09-09T01:04:47.192Z,66.79
2018-09-09T01:07:16.041Z,66.94
2018-09-09T01:09:44.823Z,67.03
2018-09-09T01:12:13.784Z,66.72
2018-09-09T01:14:42.819Z,66.82
2018-09-09T01:17:11.596Z,66.82
2018-09-09T01:19:40.403Z,66.67
2018-09-09T01:22:09.183Z,66.10
2018-09-09T01:24:37.963Z,66.70
2018-09-09T01:27:06.787Z,66.56
2018-09-09T01:29:35.620Z,66.11
2018-09-09T01:32:04.426Z,66.47
2018-09-09T01:34:33.191Z,66.42
2018-09-09T01:37:01.947Z,66.88
2018-09-09T01:39:30.760Z,66.94
2018-09-09T01:41:59.528Z,66.87
2018-09-09T01:44:28.342Z,66.52
2018-09-09T01:46:57.166Z,67.24
2018-09-09T01:49:25.971Z,67.05
2018-09-09T01:51:54.784Z,66.94
2018-09-09T01:54:23.605Z,66.54
2018-09-09T01:56:52.410Z,66.82
2018-09-09T01:59:21.222Z,67.12
2018-09-09T02:01:50.008Z,67.05
2018-09-09T02:04:18.830Z,66.91
2018-09-09T02:06:47.644Z,67.33
2018-09-09T02:09:16.423Z,66.68
2018-09-09T02:11:45.289Z,66.86
2018-09-09T02:14:14.097Z,67.01
2018-09-09T02:16:42.931Z,67.61
2018-09-09T02:19:11.790Z,67.79
2018-09-09T02:21:40.629Z,67.30
2018-09-09T02:24:09.401Z,68.34
2018-09-09T02:26:38.263Z,67.79
2018-09-09T02:29:07.129Z,68.23
2018-09-09T02:31:35.898Z,67.88
2018-09-09T02:34:04.772Z,68.34
2018-09-09T02:36:33.571Z,68.78
2018-09-09T02:39:02.404Z,68.28
2018-09-09T02:41:31.192Z,67.94
2018-09-09T02:44:00.011Z,68.46
2018-09-09T02:46:28.808Z,68.59
2018-09-09T02:48:57.624Z,68.54
2018-09-09T02:51:26.620Z,68.29
2018-09-09T02:53:55.448Z,68.22
2018-09-09T02:56:24.224Z,68.84
2018-09-09T02:58:53.013Z,69.24
2018-09-09T03:01:21.805Z,68.69
2018-09-09T03:03:50.676Z,68.72
2018-09-09T03:06:19.691Z,69.40
2018-09-09T03:08:48.476Z,68.93
2018-09-09T03:11:17.261Z,70.05
2018-09-09T03:13:46.737Z,69.84
2018-09-09T03:16:15.496Z,70.24
2018-09-09T03:18:44.356Z,70.06
2018-09-09T03:21:20.250Z,70.91
2018-09-09T03:23:49.336Z,70.35
2018-09-09T03:26:18.124Z,70.82
2018-09-09T03:28:47.041Z,71.05
2018-09-09T03:31:15.962Z,71.36
2018-09-09T03:33:44.759Z,71.28
2018-09-09T03:36:13.598Z,71.22
2018-09-09T03:38:42.739Z,71.37
2018-09-09T03:41:11.527Z,71.16
2018-09-09T03:43:40.299Z,70.81
2018-09-09T03:46:09.186Z,70.56
2018-09-09T03:48:37.982Z,70.93
2018-09-09T03:51:06.804Z,70.33
2018-09-09T03:53:35.603Z,70.15
2018-09-09T03:56:04.387Z,71.05
2018-09-09T03:58:33.219Z,70.63
2018-09-09T04:01:02.119Z,70.73
2018-09-09T04:03:30.912Z,70.95
2018-09-09T04:05:59.750Z,71.67
2018-09-09T04:08:28.560Z,71.07
2018-09-09T04:10:57.390Z,70.96
2018-09-09T04:13:26.218Z,71.74
2018-09-09T04:15:55.019Z,71.42
2018-09-09T04:18:23.761Z,70.81
2018-09-09T04:20:52.574Z,69.75
2018-09-09T04:23:21.407Z,69.33
2018-09-09T04:25:50.197Z,68.51
2018-09-09T04:28:18.978Z,67.56
2018-09-09T04:30:47.802Z,68.07
2018-09-09T04:33:16.763Z,66.84
2018-09-09T04:35:45.519Z,66.83
2018-09-09T04:38:14.296Z,66.49
2018-09-09T04:40:43.058Z,66.44
2018-09-09T04:43:11.826Z,66.75
2018-09-09T04:45:40.632Z,66.67
2018-09-09T04:48:09.424Z,66.52
2018-09-09T04:50:38.316Z,66.24
2018-09-09T04:53:07.193Z,66.06
2018-09-09T04:55:36.044Z,66.41
2018-09-09T04:58:04.877Z,66.05
2018-09-09T05:00:33.934Z,65.60
2018-09-09T05:03:02.741Z,65.59
2018-09-09T05:05:31.576Z,65.46
2018-09-09T05:08:00.331Z,65.39
2018-09-09T05:10:29.245Z,66.26
2018-09-09T05:12:58.034Z,66.15
2018-09-09T05:15:26.857Z,66.62
2018-09-09T05:17:55.640Z,66.13
2018-09-09T05:20:24.532Z,66.01
2018-09-09T05:22:53.323Z,65.76
2018-09-09T05:25:22.159Z,65.82
2018-09-09T05:27:50.985Z,66.06
2018-09-09T05:30:19.808Z,66.31
2018-09-09T05:32:48.615Z,66.57
2018-09-09T05:35:17.368Z,66.46
2018-09-09T05:37:46.166Z,66.87
2018-09-09T05:40:14.946Z,66.60
2018-09-09T05:42:43.703Z,67.00
2018-09-09T05:45:12.487Z,66.71
2018-09-09T05:47:41.302Z,65.95
2018-09-09T05:50:10.167Z,65.82
2018-09-09T05:52:38.975Z,66.26
2018-09-09T05:55:08.199Z,66.59
2018-09-09T05:57:36.943Z,66.54
2018-09-09T06:00:07.026Z,65.66
2018-09-09T06:02:35.796Z,66.37
2018-09-09T06:05:04.850Z,66.07
2018-09-09T06:07:33.639Z,65.79
2018-09-09T06:10:02.415Z,66.09
2018-09-09T06:12:31.181Z,66.04
2018-09-09T06:14:59.976Z,65.22
2018-09-09T06:17:28.720Z,65.49
2018-09-09T06:19:57.531Z,65.40
2018-09-09T06:22:26.289Z,64.92
2018-09-09T06:24:55.081Z,65.66
2018-09-09T06:27:23.943Z,65.55
2018-09-09T06:29:52.679Z,65.21
2018-09-09T06:32:21.440Z,64.24
2018-09-09T06:34:50.211Z,64.79
2018-09-09T06:37:19.026Z,63.68
2018-09-09T06:39:47.811Z,63.71
2018-09-09T06:42:16.579Z,63.32
2018-09-09T06:44:45.298Z,63.90
2018-09-09T06:47:14.069Z,64.05
2018-09-09T06:49:42.876Z,64.02
2018-09-09T06:52:11.780Z,63.07
2018-09-09T06:54:40.556Z,63.13
2018-09-09T06:57:09.304Z,62.50
2018-09-09T06:59:38.049Z,63.77
2018-09-09T07:02:06.879Z,64.02
2018-09-09T07:04:35.725Z,63.15
2018-09-09T07:07:04.560Z,63.81
2018-09-09T07:09:33.319Z,63.04
2018-09-09T07:12:02.185Z,62.38
2018-09-09T07:14:31.147Z,62.03
2018-09-09T07:16:59.964Z,62.47
2018-09-09T07:19:28.960Z,62.34
2018-09-09T07:21:57.739Z,62.89
2018-09-09T07:24:26.810Z,63.22
2018-09-09T07:26:55.624Z,63.09
2018-09-09T07:29:25.123Z,61.92
2018-09-09T07:31:54.022Z,61.43
2018-09-09T07:34:23.000Z,62.31
2018-09-09T07:36:51.972Z,60.64
2018-09-09T07:39:20.805Z,60.04
2018-09-09T07:41:49.594Z,59.40
2018-09-09T07:44:18.387Z,59.82
2018-09-09T07:46:47.225Z,58.09
2018-09-09T07:49:15.964Z,58.42
2018-09-09T07:51:44.855Z,57.35
2018-09-09T07:54:13.684Z,57.00
2018-09-09T07:56:42.504Z,57.65
2018-09-09T07:59:11.398Z,57.07
2018-09-09T08:01:40.211Z,57.14
2018-09-09T08:04:08.999Z,55.58
2018-09-09T08:06:37.790Z,56.09
2018-09-09T08:09:08.376Z,55.39
2018-09-09T08:11:37.189Z,54.41
2018-09-09T08:14:07.436Z,53.35
2018-09-09T08:16:36.365Z,53.53
2018-09-09T08:19:05.753Z,52.16
2018-09-09T08:21:35.208Z,54.11
2018-09-09T08:24:04.197Z,52.92
2018-09-09T08:26:32.951Z,53.46
2018-09-09T08:29:01.781Z,53.03
2018-09-09T08:31:30.528Z,52.94
2018-09-09T08:33:59.353Z,51.90
2018-09-09T08:36:28.135Z,52.95
2018-09-09T08:38:56.956Z,52.38
2018-09-09T08:41:25.716Z,52.21
2018-09-09T08:43:54.494Z,50.09
2018-09-09T08:46:23.278Z,50.94
2018-09-09T08:48:52.048Z,51.85
2018-09-09T08:51:20.850Z,52.01
2018-09-09T08:53:50.262Z,50.97
2018-09-09T08:56:19.102Z,50.38
2018-09-09T08:58:50.778Z,50.85
2018-09-09T09:01:19.961Z,50.54
2018-09-09T09:03:48.806Z,50.39
2018-09-09T09:06:17.644Z,47.73
2018-09-09T09:08:46.599Z,46.06
2018-09-09T09:11:15.596Z,45.26
2018-09-09T09:13:44.455Z,45.50
2018-09-09T09:16:13.235Z,45.21
2018-09-09T09:18:42.080Z,45.43
2018-09-09T09:21:10.995Z,45.78
2018-09-09T09:23:39.859Z,45.74
2018-09-09T09:26:08.778Z,44.96
2018-09-09T09:28:37.533Z,44.57
2018-09-09T09:31:06.573Z,44.48
2018-09-09T09:33:35.337Z,43.45
2018-09-09T09:36:04.209Z,42.49
2018-09-09T09:38:32.988Z,43.98
2018-09-09T09:41:01.808Z,45.40
2018-09-09T09:43:30.598Z,45.73
2018-09-09T09:45:59.379Z,44.65
2018-09-09T09:48:29.163Z,45.15
2018-09-09T09:50:57.916Z,45.45
2018-09-09T09:53:26.790Z,46.07
2018-09-09T09:55:55.708Z,46.04
2018-09-09T09:58:24.466Z,46.02
2018-09-09T10:00:59.179Z,45.60
2018-09-09T10:03:28.074Z,45.47
2018-09-09T10:05:56.971Z,45.83
2018-09-09T10:08:25.824Z,45.87
2018-09-09T10:10:54.964Z,44.67
2018-09-09T10:13:23.780Z,45.14
2018-09-09T10:15:52.536Z,43.93
2018-09-09T10:18:21.293Z,43.65
2018-09-09T10:20:50.063Z,43.62
2018-09-09T10:23:18.837Z,42.84
2018-09-09T10:25:47.629Z,42.71
2018-09-09T10:28:16.458Z,43.45
2018-09-09T10:30:45.276Z,43.67
2018-09-09T10:33:14.088Z,43.91
2018-09-09T10:35:42.832Z,45.54
2018-09-09T10:38:11.696Z,45.77
2018-09-09T10:40:40.537Z,45.97
2018-09-09T10:43:09.320Z,43.73
2018-09-09T10:45:38.109Z,42.60
2018-09-09T10:48:07.000Z,42.84
2018-09-09T10:50:35.851Z,42.16
2018-09-09T10:53:04.668Z,42.77
2018-09-09T10:55:33.592Z,42.30
2018-09-09T10:58:02.364Z,41.84
2018-09-09T11:00:31.131Z,42.00
2018-09-09T11:02:59.888Z,43.85
2018-09-09T11:05:28.660Z,42.94
2018-09-09T11:07:57.424Z,42.96
2018-09-09T11:10:26.223Z,41.91
2018-09-09T11:12:55.092Z,42.32
2018-09-09T11:15:24.032Z,43.96
2018-09-09T11:17:52.859Z,43.76
2018-09-09T11:20:21.744Z,43.46
2018-09-09T11:22:50.908Z,47.40
2018-09-09T11:25:19.716Z,52.36
2018-09-09T11:27:48.515Z,55.05
2018-09-09T11:30:17.315Z,53.52
2018-09-09T11:32:46.154Z,59.41
2018-09-09T11:35:14.924Z,58.62
2018-09-09T11:37:43.695Z,60.37
2018-09-09T11:40:12.456Z,60.55
2018-09-09T11:42:41.260Z,65.31
2018-09-09T11:45:10.106Z,67.05
2018-09-09T11:47:38.924Z,66.51
2018-09-09T11:50:08.098Z,69.30
2018-09-09T11:52:36.844Z,69.81
2018-09-09T11:55:05.680Z,69.64
2018-09-09T11:57:34.433Z,66.74
2018-09-09T12:00:04.730Z,62.71
2018-09-09T12:02:33.504Z,65.15
2018-09-09T12:05:02.274Z,65.16
2018-09-09T12:07:31.132Z,66.88
2018-09-09T12:10:00.103Z,66.42
2018-09-09T12:12:29.092Z,72.38
2018-09-09T12:14:59.007Z,75.91
2018-09-09T12:17:27.819Z,75.46
2018-09-09T12:19:56.589Z,74.61
2018-09-09T12:22:25.352Z,74.73
2018-09-09T12:24:54.170Z,74.56
2018-09-09T12:27:22.942Z,73.20
2018-09-09T12:29:51.763Z,73.22
2018-09-09T12:32:20.601Z,72.04
2018-09-09T12:34:49.584Z,71.34
2018-09-09T12:37:18.381Z,70.68
2018-09-09T12:39:47.228Z,71.55
2018-09-09T12:42:16.023Z,71.40
2018-09-09T12:44:50.077Z,69.84
2018-09-09T12:47:24.754Z,68.74
2018-09-09T12:49:54.048Z,68.62
2018-09-09T12:52:22.904Z,66.44
2018-09-09T12:54:51.724Z,65.65
2018-09-09T12:57:20.534Z,63.75
2018-09-09T12:59:49.364Z,64.90
2018-09-09T13:02:18.162Z,64.37
2018-09-09T13:04:46.930Z,65.02
2018-09-09T13:07:18.703Z,63.95
2018-09-09T13:09:47.631Z,64.60
2018-09-09T13:12:16.411Z,66.35
2018-09-09T13:14:45.244Z,69.30
2018-09-09T13:17:14.068Z,65.71
2018-09-09T13:19:42.884Z,62.61
2018-09-09T13:22:11.669Z,59.84
2018-09-09T13:24:40.447Z,59.59
2018-09-09T13:27:09.278Z,60.33
2018-09-09T13:29:38.099Z,59.54
2018-09-09T13:32:06.915Z,62.73
2018-09-09T13:34:35.733Z,56.50
2018-09-09T13:37:04.529Z,59.55
2018-09-09T13:39:33.353Z,57.38
2018-09-09T13:42:02.471Z,57.12
2018-09-09T13:44:31.677Z,57.02
2018-09-09T13:47:00.547Z,56.50
2018-09-09T13:49:29.408Z,58.75
2018-09-09T13:51:58.957Z,57.93
2018-09-09T13:54:27.785Z,58.86
2018-09-09T13:56:56.588Z,61.29
2018-09-09T13:59:25.352Z,60.33
2018-09-09T14:01:54.223Z,59.93
2018-09-09T14:04:22.962Z,60.66
2018-09-09T14:06:51.891Z,59.32
2018-09-09T14:09:20.742Z,58.13
2018-09-09T14:11:49.532Z,56.43
2018-09-09T14:14:18.316Z,57.40
2018-09-09T14:16:47.099Z,59.72
2018-09-09T14:19:15.940Z,62.83
2018-09-09T14:21:44.755Z,60.33
2018-09-09T14:24:14.371Z,59.54
2018-09-09T14:26:43.357Z,58.42
2018-09-09T14:29:12.246Z,57.88
2018-09-09T14:31:41.171Z,57.31
2018-09-09T14:34:10.032Z,53.62
2018-09-09T14:36:38.966Z,50.38
2018-09-09T14:39:09.339Z,48.04
2018-09-09T14:41:38.111Z,46.20
2018-09-09T14:44:07.167Z,46.56
2018-09-09T14:46:35.957Z,45.70
2018-09-09T14:49:04.759Z,46.84
2018-09-09T14:51:33.599Z,44.08
2018-09-09T14:54:02.375Z,42.03
2018-09-09T14:56:31.167Z,42.86
2018-09-09T14:59:00.130Z,43.17
2018-09-09T15:01:29.326Z,43.03
2018-09-09T15:03:58.116Z,42.44
2018-09-09T15:06:27.269Z,43.28
2018-09-09T15:08:56.281Z,43.54
2018-09-09T15:11:25.068Z,42.23
2018-09-09T15:13:53.931Z,41.49
2018-09-09T15:16:22.721Z,41.45
2018-09-09T15:18:53.218Z,41.27
2018-09-09T15:21:22.033Z,39.91
2018-09-09T15:23:50.836Z,40.07
2018-09-09T15:26:19.658Z,40.42
2018-09-09T15:28:48.520Z,41.71
2018-09-09T15:31:17.419Z,41.29
2018-09-09T15:33:46.183Z,41.52
2018-09-09T15:36:15.065Z,42.03
2018-09-09T15:38:43.882Z,41.59
2018-09-09T15:41:13.457Z,41.21
2018-09-09T15:43:42.294Z,41.13
2018-09-09T15:46:11.091Z,40.50
2018-09-09T15:48:39.857Z,40.96
2018-09-09T15:51:08.619Z,40.56
2018-09-09T15:53:37.404Z,41.05
2018-09-09T15:56:06.185Z,41.79
2018-09-09T15:58:34.991Z,42.07
2018-09-09T16:01:03.864Z,42.56
2018-09-09T16:03:32.704Z,42.41
2018-09-09T16:06:01.477Z,42.75
2018-09-09T16:08:30.270Z,42.05
2018-09-09T16:10:59.119Z,43.15
2018-09-09T16:13:27.903Z,43.40
2018-09-09T16:15:56.678Z,42.87
2018-09-09T16:18:25.489Z,43.03
2018-09-09T16:20:54.262Z,43.93
2018-09-09T16:23:23.073Z,43.81
2018-09-09T16:25:51.958Z,43.77
2018-09-09T16:28:20.722Z,45.02
2018-09-09T16:30:49.497Z,44.02
2018-09-09T16:33:18.450Z,43.94
2018-09-09T16:35:47.285Z,44.03
2018-09-09T16:38:16.054Z,44.42
2018-09-09T16:40:44.827Z,45.78
2018-09-09T16:43:14.391Z,45.19
2018-09-09T16:45:43.160Z,45.41
2018-09-09T16:48:11.986Z,46.39
2018-09-09T16:50:40.776Z,45.92
2018-09-09T16:53:09.541Z,46.93
2018-09-09T16:55:38.303Z,46.39
2018-09-09T16:58:07.143Z,46.99
2018-09-09T17:00:35.981Z,47.06
2018-09-09T17:03:04.807Z,47.57
2018-09-09T17:05:33.694Z,47.18
2018-09-09T17:08:02.512Z,47.54
2018-09-09T17:10:31.315Z,48.19
2018-09-09T17:13:00.174Z,47.42
2018-09-09T17:15:34.872Z,48.31
2018-09-09T17:18:03.943Z,48.04
2018-09-09T17:20:32.726Z,48.03
2018-09-09T17:23:02.397Z,47.80
2018-09-09T17:25:31.247Z,48.00
2018-09-09T17:27:59.964Z,48.48
2018-09-09T17:30:29.272Z,47.57
2018-09-09T17:32:58.134Z,48.14
2018-09-09T17:35:26.948Z,47.95
2018-09-09T17:37:55.739Z,48.11
2018-09-09T17:40:24.878Z,47.77
2018-09-09T17:42:53.628Z,48.30
2018-09-09T17:45:22.483Z,47.67
2018-09-09T17:47:51.303Z,47.78
2018-09-09T17:50:20.050Z,47.54
2018-09-09T17:52:48.892Z,48.30
2018-09-09T17:55:17.943Z,47.83
2018-09-09T17:57:46.775Z,48.86
2018-09-09T18:00:15.627Z,47.69
2018-09-09T18:02:44.413Z,48.66
2018-09-09T18:05:13.452Z,48.26
2018-09-09T18:07:42.230Z,48.25
2018-09-09T18:10:11.025Z,47.86
2018-09-09T18:12:39.855Z,47.62
2018-09-09T18:15:08.774Z,46.91
2018-09-09T18:17:37.576Z,47.16
2018-09-09T18:20:06.518Z,47.37
2018-09-09T18:22:35.478Z,47.39
2018-09-09T18:25:04.350Z,47.58
2018-09-09T18:27:33.150Z,47.68
2018-09-09T18:30:01.920Z,48.01
2018-09-09T18:32:30.650Z,47.65
2018-09-09T18:34:59.595Z,47.80
2018-09-09T18:37:28.534Z,48.28
2018-09-09T18:39:57.343Z,48.76
2018-09-09T18:42:26.149Z,48.95
2018-09-09T18:44:54.978Z,49.23
2018-09-09T18:47:23.867Z,49.52
2018-09-09T18:49:52.818Z,49.25
2018-09-09T18:52:21.634Z,50.05
2018-09-09T18:54:50.475Z,48.94
2018-09-09T18:57:19.286Z,50.31
2018-09-09T18:59:48.092Z,50.76
2018-09-09T19:02:16.928Z,50.00
2018-09-09T19:04:45.816Z,49.40
2018-09-09T19:07:14.678Z,49.75
2018-09-09T19:09:43.487Z,49.76
2018-09-09T19:12:12.385Z,50.36
2018-09-09T19:14:41.595Z,49.62
2018-09-09T19:17:10.414Z,51.21
2018-09-09T19:19:39.264Z,50.37
2018-09-09T19:22:08.465Z,51.24
2018-09-09T19:24:37.380Z,51.79
2018-09-09T19:27:06.492Z,52.86
2018-09-09T19:29:35.395Z,53.19
2018-09-09T19:32:04.191Z,54.55
2018-09-09T19:34:33.004Z,53.38
2018-09-09T19:37:01.824Z,54.05
2018-09-09T19:39:30.683Z,53.84
2018-09-09T19:41:59.492Z,54.34
2018-09-09T19:44:28.275Z,54.00
2018-09-09T19:46:57.054Z,53.79
2018-09-09T19:49:25.887Z,53.69
2018-09-09T19:51:54.698Z,53.43
2018-09-09T19:54:23.539Z,53.14
2018-09-09T19:56:52.338Z,53.53
2018-09-09T19:59:21.094Z,53.06
2018-09-09T20:01:49.939Z,53.22
2018-09-09T20:04:18.798Z,52.32
2018-09-09T20:06:47.585Z,53.14
2018-09-09T20:09:16.366Z,53.18
2018-09-09T20:11:45.140Z,53.04
2018-09-09T20:14:13.954Z,53.44
2018-09-09T20:16:42.752Z,52.83
2018-09-09T20:19:11.620Z,52.95
2018-09-09T20:21:40.494Z,51.60
2018-09-09T20:24:09.316Z,52.14
2018-09-09T20:26:38.146Z,51.93
2018-09-09T20:29:07.072Z,52.23
2018-09-09T20:31:36.064Z,52.33
2018-09-09T20:34:05.003Z,53.01
2018-09-09T20:36:33.904Z,53.40
2018-09-09T20:39:03.936Z,53.14
2018-09-09T20:41:32.745Z,53.72
2018-09-09T20:44:01.544Z,53.00
2018-09-09T20:46:31.420Z,52.46
2018-09-09T20:49:00.265Z,52.55
2018-09-09T20:51:29.061Z,52.02
2018-09-09T20:53:57.862Z,52.15
2018-09-09T20:56:26.686Z,53.25
2018-09-09T20:58:55.599Z,53.57
2018-09-09T21:01:24.393Z,53.32
2018-09-09T21:03:53.192Z,53.19
2018-09-09T21:06:23.695Z,52.89
2018-09-09T21:08:52.521Z,53.39
2018-09-09T21:11:21.622Z,53.67
2018-09-09T21:13:50.421Z,53.91
2018-09-09T21:16:19.322Z,53.96
2018-09-09T21:18:48.136Z,53.76
2018-09-09T21:21:16.943Z,53.58
2018-09-09T21:23:45.780Z,53.87
2018-09-09T21:26:14.664Z,53.23
2018-09-09T21:28:43.607Z,53.09
2018-09-09T21:31:12.433Z,53.00
2018-09-09T21:33:41.353Z,52.90
2018-09-09T21:36:10.158Z,53.80
2018-09-09T21:38:38.943Z,53.03
2018-09-09T21:41:07.754Z,52.95
2018-09-09T21:43:36.585Z,53.87
2018-09-09T21:46:05.405Z,53.31
2018-09-09T21:48:34.182Z,53.81
2018-09-09T21:51:02.991Z,53.24
2018-09-09T21:53:31.747Z,54.44
2018-09-09T21:56:00.522Z,53.22
2018-09-09T21:58:29.290Z,53.87
2018-09-09T22:01:03.169Z,53.99
2018-09-09T22:03:31.984Z,54.31
2018-09-09T22:06:00.761Z,53.90
2018-09-09T22:08:29.522Z,55.51
2018-09-09T22:10:58.318Z,54.93
2018-09-09T22:13:27.131Z,54.07
2018-09-09T22:15:55.925Z,55.35
2018-09-09T22:18:24.706Z,55.28
2018-09-09T22:20:53.558Z,55.11
2018-09-09T22:23:22.380Z,55.77
2018-09-09T22:25:51.261Z,55.70
2018-09-09T22:28:20.036Z,56.41
2018-09-09T22:30:48.871Z,55.44
2018-09-09T22:33:17.655Z,55.29
2018-09-09T22:35:46.447Z,55.25
2018-09-09T22:38:15.272Z,56.30
2018-09-09T22:40:44.015Z,56.39
2018-09-09T22:43:13.003Z,55.99
2018-09-09T22:45:42.265Z,55.65
2018-09-09T22:48:11.762Z,56.24
2018-09-09T22:50:40.613Z,55.47
2018-09-09T22:53:09.677Z,55.51
2018-09-09T22:55:38.487Z,56.12
2018-09-09T22:58:07.244Z,55.50
2018-09-09T23:00:36.075Z,56.14
2018-09-09T23:03:04.890Z,55.92
2018-09-09T23:05:33.775Z,56.46
2018-09-09T23:08:02.732Z,56.70
2018-09-09T23:10:31.521Z,56.97
2018-09-09T23:13:00.406Z,57.62
2018-09-09T23:15:29.631Z,56.26
2018-09-09T23:17:58.460Z,56.98
2018-09-09T23:20:27.319Z,56.32
2018-09-09T23:22:56.358Z,56.61
2018-09-09T23:25:25.122Z,57.48
2018-09-09T23:27:54.123Z,56.51
2018-09-09T23:30:22.904Z,56.59
2018-09-09T23:32:51.699Z,56.53
2018-09-09T23:35:20.537Z,56.65
2018-09-09T23:37:49.504Z,56.67
2018-09-09T23:40:18.248Z,56.49
2018-09-09T23:42:47.023Z,57.47
2018-09-09T23:45:15.799Z,57.08
2018-09-09T23:47:44.575Z,57.85
2018-09-09T23:50:13.437Z,57.70
2018-09-09T23:52:42.240Z,57.51
2018-09-09T23:55:11.034Z,58.26
2018-09-09T23:57:39.825Z,57.98
